Terminal Aerodrome Forecast
Issued by NWS Duluth, MN

Home | Current Version | Previous Version | Text Only | Print | Product List | Glossary On
Versions: 1 2 3 4 5 6 7 8 9 10 11 12 13 14 15 16 17 18 19 20
000
FTUS43 KDLH 040806 AAB
TAFDLH
TAF AMD
KDLH 040806Z 0408/0506 05004KT 6SM FU SKC
      TEMPO 0411/0413 1 1/2SM BR SCT005
     FM041800 10010KT P6SM FEW050
     FM050400 14005KT P6SM FEW050=

USA.gov is the U.S. government's official web portal to all federal, state and local government web resources and services.